createdAt,value
2017-07-18T00:00:00.994Z,28.6
2017-07-18T00:01:02.768Z,28.6
2017-07-18T00:02:04.566Z,28.6
2017-07-18T00:03:06.703Z,28.6
2017-07-18T00:04:08.479Z,28.6
2017-07-18T00:05:09.619Z,28.6
2017-07-18T00:06:11.417Z,28.7
2017-07-18T00:07:12.913Z,28.6
2017-07-18T00:08:14.699Z,28.7
2017-07-18T00:09:16.153Z,28.6
2017-07-18T00:10:17.950Z,28.6
2017-07-18T00:11:19.396Z,28.6
2017-07-18T00:12:21.193Z,28.6
2017-07-18T00:13:23.347Z,28.6
2017-07-18T00:14:24.459Z,28.6
2017-07-18T00:15:26.237Z,28.7
2017-07-18T00:16:28.083Z,28.6
2017-07-18T00:17:30.221Z,28.6
2017-07-18T00:18:31.353Z,28.6
2017-07-18T00:19:33.480Z,28.6
2017-07-18T00:20:34.931Z,28.6
2017-07-18T00:21:37.064Z,28.6
2017-07-18T00:22:38.865Z,28.6
2017-07-18T00:23:40.995Z,28.6
2017-07-18T00:24:43.127Z,28.6
2017-07-18T00:25:44.905Z,28.6
2017-07-18T00:26:47.042Z,28.6
2017-07-18T00:27:48.836Z,28.6
2017-07-18T00:28:50.636Z,28.6
2017-07-18T00:29:52.784Z,28.6
2017-07-18T00:30:54.217Z,28.6
2017-07-18T00:31:55.660Z,28.6
2017-07-18T00:32:57.794Z,28.7
2017-07-18T00:33:59.595Z,28.6
2017-07-18T00:35:01.395Z,28.6
2017-07-18T00:36:03.528Z,28.6
2017-07-18T00:37:05.311Z,28.7
2017-07-18T00:38:07.090Z,28.6
2017-07-18T00:39:09.221Z,28.6
2017-07-18T00:40:11.017Z,28.6
2017-07-18T00:41:12.815Z,28.6
2017-07-18T00:42:14.593Z,28.6
2017-07-18T00:43:16.393Z,28.7
2017-07-18T00:44:17.527Z,28.6
2017-07-18T00:45:19.331Z,28.6
2017-07-18T00:46:21.130Z,28.6
2017-07-18T00:47:23.261Z,28.6
2017-07-18T00:48:25.041Z,28.6
2017-07-18T00:49:27.173Z,28.6
2017-07-18T00:50:28.972Z,28.7
2017-07-18T00:51:31.111Z,28.5
2017-07-18T00:52:32.247Z,28.6
2017-07-18T00:53:34.385Z,28.6
2017-07-18T00:54:36.183Z,28.6
2017-07-18T00:55:38.315Z,28.6
2017-07-18T00:56:40.112Z,28.6
2017-07-18T00:57:41.554Z,28.6
2017-07-18T00:58:43.687Z,28.6
2017-07-18T00:59:45.832Z,28.6
2017-07-18T01:00:47.963Z,28.6
2017-07-18T01:01:49.763Z,28.6
2017-07-18T01:02:51.896Z,28.6
2017-07-18T01:03:53.708Z,28.6
2017-07-18T01:04:55.490Z,28.5
2017-07-18T01:05:57.288Z,28.5
2017-07-18T01:06:58.405Z,28.5
2017-07-18T01:08:00.534Z,28.6
2017-07-18T01:09:02.664Z,28.5
2017-07-18T01:10:04.464Z,28.5
2017-07-18T01:11:06.595Z,28.6
2017-07-18T01:12:08.728Z,28.6
2017-07-18T01:13:10.183Z,28.5
2017-07-18T01:14:11.961Z,28.5
2017-07-18T01:15:13.754Z,28.5
2017-07-18T01:16:15.937Z,28.6
2017-07-18T01:17:18.072Z,28.6
2017-07-18T01:18:19.876Z,28.5
2017-07-18T01:19:22.027Z,28.5
2017-07-18T01:20:24.160Z,28.5
2017-07-18T01:21:25.632Z,28.6
2017-07-18T01:22:27.095Z,28.5
2017-07-18T01:23:29.233Z,28.6
2017-07-18T01:24:31.363Z,28.5
2017-07-18T01:25:33.163Z,28.5
2017-07-18T01:26:34.629Z,28.5
2017-07-18T01:27:36.760Z,28.5
2017-07-18T01:28:38.888Z,28.5
2017-07-18T01:29:41.017Z,28.5
2017-07-18T01:30:43.156Z,28.5
2017-07-18T01:31:45.282Z,28.5
2017-07-18T01:32:47.413Z,28.5
2017-07-18T01:33:49.197Z,28.5
2017-07-18T01:34:51.019Z,28.5
2017-07-18T01:35:52.481Z,28.6
2017-07-18T01:36:54.601Z,28.5
2017-07-18T01:37:56.046Z,28.5
2017-07-18T01:38:58.182Z,28.5
2017-07-18T01:40:00.314Z,28.5
2017-07-18T01:41:02.123Z,28.5
2017-07-18T01:42:03.926Z,28.5
2017-07-18T01:43:05.721Z,28.5
2017-07-18T01:44:07.188Z,28.5
2017-07-18T01:45:08.986Z,28.5
2017-07-18T01:46:11.120Z,28.5
2017-07-18T01:47:12.561Z,28.5
2017-07-18T01:48:14.696Z,28.5
2017-07-18T01:49:16.493Z,28.4
2017-07-18T01:50:18.306Z,28.5
2017-07-18T01:51:20.105Z,28.5
2017-07-18T01:52:21.574Z,28.4
2017-07-18T01:53:23.704Z,28.5
2017-07-18T01:54:25.162Z,28.5
2017-07-18T01:55:27.287Z,28.5
2017-07-18T01:56:29.421Z,28.4
2017-07-18T01:57:31.216Z,28.5
2017-07-18T01:58:33.351Z,28.5
2017-07-18T01:59:35.150Z,28.5
2017-07-18T02:00:36.961Z,28.5
2017-07-18T02:01:39.091Z,28.5
2017-07-18T02:02:40.896Z,28.5
2017-07-18T02:03:43.026Z,28.5
2017-07-18T02:04:45.156Z,28.5
2017-07-18T02:05:46.622Z,28.5
2017-07-18T02:06:48.409Z,28.4
2017-07-18T02:07:49.875Z,28.5
2017-07-18T02:08:51.679Z,28.5
2017-07-18T02:09:53.142Z,28.5
2017-07-18T02:10:55.269Z,28.4
2017-07-18T02:11:57.045Z,28.4
2017-07-18T02:12:59.177Z,28.4
2017-07-18T02:14:00.643Z,28.4
2017-07-18T02:15:02.446Z,28.4
2017-07-18T02:16:04.576Z,28.5
2017-07-18T02:17:06.725Z,28.4
2017-07-18T02:18:08.538Z,28.4
2017-07-18T02:19:10.670Z,28.4
2017-07-18T02:20:12.117Z,28.4
2017-07-18T02:21:13.916Z,28.5
2017-07-18T02:22:15.716Z,28.4
2017-07-18T02:23:17.158Z,28.4
2017-07-18T02:24:18.293Z,28.4
2017-07-18T02:25:20.092Z,28.5
2017-07-18T02:26:22.224Z,28.4
2017-07-18T02:27:24.038Z,28.5
2017-07-18T02:28:25.810Z,28.4
2017-07-18T02:29:27.997Z,28.4
2017-07-18T02:30:29.805Z,28.4
2017-07-18T02:31:30.919Z,28.4
2017-07-18T02:32:32.724Z,28.4
2017-07-18T02:33:34.852Z,28.4
2017-07-18T02:34:36.652Z,28.4
2017-07-18T02:35:38.781Z,28.4
2017-07-18T02:36:40.558Z,28.4
2017-07-18T02:37:42.686Z,28.4
2017-07-18T02:38:44.463Z,28.4
2017-07-18T02:39:46.264Z,28.4
2017-07-18T02:40:47.729Z,28.4
2017-07-18T02:41:49.860Z,28.4
2017-07-18T02:42:51.660Z,28.4
2017-07-18T02:43:53.460Z,28.4
2017-07-18T02:44:55.255Z,28.4
2017-07-18T02:45:57.049Z,28.4
2017-07-18T02:46:59.186Z,28.4
2017-07-18T02:48:00.982Z,28.4
2017-07-18T02:49:03.117Z,28.4
2017-07-18T02:50:05.250Z,28.4
2017-07-18T02:51:07.062Z,28.4
2017-07-18T02:52:08.858Z,28.4
2017-07-18T02:53:10.989Z,28.4
2017-07-18T02:54:12.789Z,28.4
2017-07-18T02:55:14.919Z,28.4
2017-07-18T02:56:16.718Z,28.4
2017-07-18T02:57:18.187Z,28.5
2017-07-18T02:58:19.989Z,28.4
2017-07-18T02:59:22.119Z,28.4
2017-07-18T03:00:24.250Z,28.4
2017-07-18T03:01:26.394Z,28.4
2017-07-18T03:02:28.193Z,28.5
2017-07-18T03:03:29.998Z,28.5
2017-07-18T03:04:32.130Z,28.5
2017-07-18T03:05:33.913Z,28.4
2017-07-18T03:06:35.377Z,28.4
2017-07-18T03:07:37.180Z,28.3
2017-07-18T03:08:39.312Z,28.4
2017-07-18T03:09:41.096Z,28.4
2017-07-18T03:10:42.875Z,28.3
2017-07-18T03:11:44.325Z,28.3
2017-07-18T03:12:46.105Z,28.4
2017-07-18T03:13:48.235Z,28.3
2017-07-18T03:14:50.366Z,28.4
2017-07-18T03:15:52.167Z,28.4
2017-07-18T03:16:53.972Z,28.4
2017-07-18T03:17:55.820Z,28.3
2017-07-18T03:18:57.950Z,28.4
2017-07-18T03:20:00.084Z,28.4
2017-07-18T03:21:01.884Z,28.4
2017-07-18T03:22:03.690Z,28.4
2017-07-18T03:23:05.184Z,28.4
2017-07-18T03:24:06.985Z,28.4
2017-07-18T03:25:08.123Z,28.4
2017-07-18T03:26:09.589Z,28.5
2017-07-18T03:27:11.718Z,28.4
2017-07-18T03:28:13.848Z,28.4
2017-07-18T03:29:15.981Z,28.3
2017-07-18T03:30:18.112Z,28.4
2017-07-18T03:31:19.911Z,28.4
2017-07-18T03:32:21.717Z,28.5
2017-07-18T03:33:23.172Z,28.4
2017-07-18T03:34:24.994Z,28.4
2017-07-18T03:35:26.796Z,28.4
2017-07-18T03:36:28.923Z,28.3
2017-07-18T03:37:30.702Z,28.4
2017-07-18T03:38:32.838Z,28.4
2017-07-18T03:39:34.972Z,28.4
2017-07-18T03:40:37.106Z,28.4
2017-07-18T03:41:38.232Z,28.4
2017-07-18T03:42:40.030Z,28.4
2017-07-18T03:43:41.831Z,28.4
2017-07-18T03:44:42.950Z,28.4
2017-07-18T03:45:45.082Z,28.4
2017-07-18T03:46:47.221Z,28.4
2017-07-18T03:47:49.356Z,28.4
2017-07-18T03:48:51.490Z,28.4
2017-07-18T03:49:52.955Z,28.4
2017-07-18T03:50:55.088Z,28.4
2017-07-18T03:51:57.218Z,28.4
2017-07-18T03:52:59.038Z,28.4
2017-07-18T03:54:00.833Z,28.4
2017-07-18T03:55:02.968Z,28.4
2017-07-18T03:56:04.746Z,28.4
2017-07-18T03:57:06.877Z,28.4
2017-07-18T03:58:08.674Z,28.4
2017-07-18T03:59:10.809Z,28.4
2017-07-18T04:00:12.940Z,28.4
2017-07-18T04:01:15.073Z,28.4
2017-07-18T04:02:16.552Z,28.4
2017-07-18T04:03:18.349Z,28.4
2017-07-18T04:04:20.530Z,28.4
2017-07-18T04:05:22.340Z,28.4
2017-07-18T04:06:24.474Z,28.4
2017-07-18T04:07:26.612Z,28.4
2017-07-18T04:08:28.413Z,28.4
2017-07-18T04:09:30.214Z,28.4
2017-07-18T04:10:32.013Z,28.4
2017-07-18T04:11:34.144Z,28.4
2017-07-18T04:12:36.275Z,28.4
2017-07-18T04:13:38.412Z,28.4
2017-07-18T04:14:40.545Z,28.4
2017-07-18T04:15:42.328Z,28.4
2017-07-18T04:16:43.769Z,28.4
2017-07-18T04:17:45.897Z,28.4
2017-07-18T04:18:47.701Z,28.4
2017-07-18T04:19:49.504Z,28.4
2017-07-18T04:20:51.645Z,28.4
2017-07-18T04:21:53.777Z,28.4
2017-07-18T04:22:55.583Z,28.4
2017-07-18T04:23:57.387Z,28.4
2017-07-18T04:24:59.520Z,28.4
2017-07-18T04:26:01.654Z,28.4
2017-07-18T04:27:03.105Z,28.4
2017-07-18T04:28:04.236Z,28.4
2017-07-18T04:29:05.674Z,28.4
2017-07-18T04:30:06.812Z,28.4
2017-07-18T04:31:08.675Z,28.4
2017-07-18T04:32:10.111Z,28.4
2017-07-18T04:33:11.561Z,28.4
2017-07-18T04:34:13.367Z,28.4
2017-07-18T04:35:14.820Z,28.4
2017-07-18T04:36:16.291Z,28.4
2017-07-18T04:37:18.074Z,28.5
2017-07-18T04:38:19.878Z,28.4
2017-07-18T04:39:21.389Z,28.4
2017-07-18T04:40:22.506Z,28.4
2017-07-18T04:41:24.294Z,28.4
2017-07-18T04:42:26.093Z,28.4
2017-07-18T04:43:28.239Z,28.4
2017-07-18T04:44:30.040Z,28.4
2017-07-18T04:45:32.168Z,28.4
2017-07-18T04:46:33.636Z,28.4
2017-07-18T04:47:35.777Z,28.4
2017-07-18T04:48:37.906Z,28.4
2017-07-18T04:49:40.050Z,28.4
2017-07-18T04:50:41.520Z,28.5
2017-07-18T04:51:43.653Z,28.4
2017-07-18T04:52:45.125Z,28.4
2017-07-18T04:53:46.927Z,28.4
2017-07-18T04:54:48.719Z,28.5
2017-07-18T04:55:50.854Z,28.5
2017-07-18T04:56:52.997Z,28.5
2017-07-18T04:57:54.799Z,28.5
2017-07-18T04:58:56.584Z,28.5
2017-07-18T04:59:58.029Z,28.5
2017-07-18T05:01:00.164Z,28.5
2017-07-18T05:02:01.632Z,28.6
2017-07-18T05:03:03.765Z,28.6
2017-07-18T05:04:05.568Z,28.6
2017-07-18T05:05:07.700Z,28.6
2017-07-18T05:06:09.532Z,28.6
2017-07-18T05:07:11.670Z,28.8
2017-07-18T05:08:13.473Z,28.8
2017-07-18T05:09:15.248Z,28.9
2017-07-18T05:10:17.048Z,28.9
2017-07-18T05:11:18.495Z,29
2017-07-18T05:12:20.272Z,29.1
2017-07-18T05:13:22.404Z,29.1
2017-07-18T05:14:23.522Z,29.1
2017-07-18T05:15:24.993Z,29.1
2017-07-18T05:16:26.769Z,29
2017-07-18T05:17:28.554Z,29
2017-07-18T05:18:30.688Z,29
2017-07-18T05:19:32.820Z,29
2017-07-18T05:20:34.616Z,29
2017-07-18T05:21:36.086Z,29.1
2017-07-18T05:22:38.218Z,29.2
2017-07-18T05:23:40.046Z,29.3
2017-07-18T05:24:41.818Z,29.4
2017-07-18T05:25:43.620Z,29.3
2017-07-18T05:26:45.420Z,29.3
2017-07-18T05:27:47.550Z,29.2
2017-07-18T05:28:48.669Z,29.1
2017-07-18T05:29:50.478Z,29.1
2017-07-18T05:30:52.614Z,29.1
2017-07-18T05:31:54.082Z,29
2017-07-18T05:32:55.884Z,29
2017-07-18T05:33:57.357Z,29.1
2017-07-18T05:34:59.491Z,29
2017-07-18T05:36:00.942Z,29
2017-07-18T05:37:02.406Z,29
2017-07-18T05:38:03.881Z,29
2017-07-18T05:39:05.323Z,29
2017-07-18T05:40:07.131Z,28.9
2017-07-18T05:41:08.595Z,28.9
2017-07-18T05:42:10.729Z,28.9
2017-07-18T05:43:11.843Z,28.9
2017-07-18T05:44:13.637Z,28.9
2017-07-18T05:45:15.772Z,29
2017-07-18T05:46:17.572Z,28.9
2017-07-18T05:47:19.037Z,29
2017-07-18T05:48:21.177Z,29
2017-07-18T05:49:22.975Z,28.9
2017-07-18T05:50:24.778Z,29
2017-07-18T05:51:26.248Z,28.9
2017-07-18T05:52:27.715Z,29
2017-07-18T05:53:29.523Z,29
2017-07-18T05:54:31.325Z,29
2017-07-18T05:55:33.458Z,29
2017-07-18T05:56:35.592Z,29
2017-07-18T05:57:37.397Z,29
2017-07-18T05:58:39.531Z,29
2017-07-18T05:59:41.333Z,29
2017-07-18T06:00:43.143Z,29
2017-07-18T06:01:45.272Z,29.1
2017-07-18T06:02:46.742Z,29
2017-07-18T06:03:48.874Z,29.1
2017-07-18T06:04:50.331Z,29.1
2017-07-18T06:05:52.465Z,29.1
2017-07-18T06:06:54.595Z,29
2017-07-18T06:07:56.728Z,29.1
2017-07-18T06:08:58.528Z,29.2
2017-07-18T06:10:00.327Z,29.2
2017-07-18T06:11:02.460Z,29.2
2017-07-18T06:12:04.595Z,29.3
2017-07-18T06:13:06.731Z,29.2
2017-07-18T06:14:08.526Z,29.3
2017-07-18T06:15:09.669Z,29.3
2017-07-18T06:16:11.473Z,29.3
2017-07-18T06:17:13.602Z,29.3
2017-07-18T06:18:15.074Z,29.3
2017-07-18T06:19:16.880Z,29.3
2017-07-18T06:20:18.684Z,29.3
2017-07-18T06:21:20.484Z,29.3
2017-07-18T06:22:22.284Z,29.3
2017-07-18T06:23:23.783Z,29.3
2017-07-18T06:24:25.917Z,29.4
2017-07-18T06:25:27.396Z,29.3
2017-07-18T06:26:29.196Z,29.3
2017-07-18T06:27:31.007Z,29.4
2017-07-18T06:28:32.821Z,29.3
2017-07-18T06:29:34.299Z,29.4
2017-07-18T06:30:36.092Z,29.4
2017-07-18T06:31:37.893Z,29.4
2017-07-18T06:32:39.363Z,29.4
2017-07-18T06:33:41.151Z,29.4
2017-07-18T06:34:42.623Z,29.4
2017-07-18T06:35:44.427Z,29.4
2017-07-18T06:36:45.876Z,29.4
2017-07-18T06:37:48.006Z,29.4
2017-07-18T06:38:49.808Z,29.4
2017-07-18T06:39:51.262Z,29.4
2017-07-18T06:40:53.387Z,29.4
2017-07-18T06:41:55.193Z,29.4
2017-07-18T06:42:56.642Z,29.5
2017-07-18T06:43:58.775Z,29.4
2017-07-18T06:45:00.562Z,29.4
2017-07-18T06:46:02.704Z,29.5
2017-07-18T06:47:04.175Z,29.5
2017-07-18T06:48:05.625Z,29.5
2017-07-18T06:49:07.784Z,29.4
2017-07-18T06:50:09.254Z,29.4
2017-07-18T06:51:11.387Z,29.5
2017-07-18T06:52:12.859Z,29.5
2017-07-18T06:53:14.333Z,29.5
2017-07-18T06:54:16.113Z,29.4
2017-07-18T06:55:18.243Z,29.4
2017-07-18T06:56:20.044Z,29.5
2017-07-18T06:57:21.494Z,29.5
2017-07-18T06:58:23.299Z,29.5
2017-07-18T06:59:25.104Z,29.6
2017-07-18T07:00:26.885Z,29.5
2017-07-18T07:01:28.668Z,29.6
2017-07-18T07:02:30.805Z,29.6
2017-07-18T07:03:32.935Z,29.6
2017-07-18T07:04:35.070Z,29.6
2017-07-18T07:05:36.848Z,29.5
2017-07-18T07:06:37.628Z,29.6
2017-07-18T07:07:39.102Z,29.6
2017-07-18T07:08:41.234Z,29.6
2017-07-18T07:09:42.704Z,29.6
2017-07-18T07:10:44.503Z,29.6
2017-07-18T07:11:46.293Z,29.6
2017-07-18T07:12:48.096Z,29.6
2017-07-18T07:13:49.575Z,29.5
2017-07-18T07:14:51.374Z,29.6
2017-07-18T07:15:53.509Z,29.6
2017-07-18T07:16:55.640Z,29.5
2017-07-18T07:17:56.761Z,29.6
2017-07-18T07:18:58.563Z,29.5
2017-07-18T07:20:00.706Z,29.6
2017-07-18T07:21:02.160Z,29.6
2017-07-18T07:22:03.964Z,29.5
2017-07-18T07:23:04.746Z,29.6
2017-07-18T07:24:06.877Z,29.6
2017-07-18T07:25:08.685Z,29.6
2017-07-18T07:26:10.482Z,29.6
2017-07-18T07:27:12.288Z,29.6
2017-07-18T07:28:13.760Z,29.5
2017-07-18T07:29:15.256Z,29.6
2017-07-18T07:30:16.381Z,29.6
2017-07-18T07:31:18.180Z,29.6
2017-07-18T07:32:19.997Z,29.5
2017-07-18T07:33:22.122Z,29.6
2017-07-18T07:34:23.240Z,29.6
2017-07-18T07:35:25.040Z,29.6
2017-07-18T07:36:26.487Z,29.6
2017-07-18T07:37:27.939Z,29.6
2017-07-18T07:38:29.414Z,29.6
2017-07-18T07:39:30.860Z,29.6
2017-07-18T07:40:32.664Z,29.6
2017-07-18T07:41:33.793Z,29.6
2017-07-18T07:42:35.601Z,29.5
2017-07-18T07:43:37.741Z,29.6
2017-07-18T07:44:39.548Z,29.6
2017-07-18T07:45:41.019Z,29.5
2017-07-18T07:46:42.477Z,29.6
2017-07-18T07:47:44.607Z,29.5
2017-07-18T07:48:46.411Z,29.6
2017-07-18T07:49:48.548Z,29.6
2017-07-18T07:50:50.354Z,29.7
2017-07-18T07:51:52.135Z,29.6
2017-07-18T07:52:54.268Z,29.5
2017-07-18T07:53:56.405Z,29.6
2017-07-18T07:54:58.301Z,29.6
2017-07-18T07:56:00.433Z,29.6
2017-07-18T07:57:02.214Z,29.6
2017-07-18T07:58:04.013Z,29.6
2017-07-18T07:59:06.150Z,29.6
2017-07-18T08:00:08.279Z,29.6
2017-07-18T08:01:10.416Z,29.6
2017-07-18T08:02:12.229Z,29.6
2017-07-18T08:03:14.363Z,29.5
2017-07-18T08:04:15.806Z,29.5
2017-07-18T08:05:17.625Z,29.6
2017-07-18T08:06:19.427Z,29.5
2017-07-18T08:07:21.567Z,29.6
2017-07-18T08:08:23.368Z,29.6
2017-07-18T08:09:25.169Z,29.6
2017-07-18T08:10:26.969Z,29.6
2017-07-18T08:11:28.088Z,29.5
2017-07-18T08:12:29.557Z,29.6
2017-07-18T08:13:31.356Z,29.6
2017-07-18T08:14:32.804Z,29.6
2017-07-18T08:15:34.939Z,29.6
2017-07-18T08:16:37.075Z,29.6
2017-07-18T08:17:38.558Z,29.6
2017-07-18T08:18:40.360Z,29.6
2017-07-18T08:19:41.808Z,29.6
2017-07-18T08:20:43.610Z,29.6
2017-07-18T08:21:45.742Z,29.6
2017-07-18T08:22:47.542Z,29.5
2017-07-18T08:23:48.668Z,29.5
2017-07-18T08:24:50.800Z,29.5
2017-07-18T08:25:52.936Z,29.6
2017-07-18T08:26:54.410Z,29.6
2017-07-18T08:27:55.860Z,29.5
2017-07-18T08:28:57.664Z,29.6
2017-07-18T08:29:59.796Z,29.6
2017-07-18T08:31:01.242Z,29.5
2017-07-18T08:32:03.034Z,29.6
2017-07-18T08:33:05.168Z,29.6
2017-07-18T08:34:06.291Z,29.6
2017-07-18T08:35:08.424Z,29.6
2017-07-18T08:36:10.560Z,29.6
2017-07-18T08:37:12.694Z,29.5
2017-07-18T08:38:14.143Z,29.6
2017-07-18T08:39:16.279Z,29.6
2017-07-18T08:40:18.083Z,29.5
2017-07-18T08:41:19.886Z,29.6
2017-07-18T08:42:22.029Z,29.6
2017-07-18T08:43:23.832Z,29.6
2017-07-18T08:44:25.968Z,29.5
2017-07-18T08:45:27.745Z,29.6
2017-07-18T08:46:29.881Z,29.7
2017-07-18T08:47:31.352Z,29.6
2017-07-18T08:48:33.485Z,29.6
2017-07-18T08:49:35.285Z,29.5
2017-07-18T08:50:37.455Z,29.5
2017-07-18T08:51:39.249Z,29.6
2017-07-18T08:52:41.384Z,29.6
2017-07-18T08:53:43.518Z,29.5
2017-07-18T08:54:44.992Z,29.6
2017-07-18T08:55:46.790Z,29.6
2017-07-18T08:56:48.594Z,29.6
2017-07-18T08:57:50.069Z,29.5
2017-07-18T08:58:51.867Z,29.6
2017-07-18T08:59:53.325Z,29.6
2017-07-18T09:00:55.456Z,29.6
2017-07-18T09:01:57.598Z,29.6
2017-07-18T09:02:59.406Z,29.5
2017-07-18T09:04:01.539Z,29.5
2017-07-18T09:05:03.671Z,29.6
2017-07-18T09:06:04.783Z,29.6
2017-07-18T09:07:06.586Z,29.6
2017-07-18T09:08:08.727Z,29.6
2017-07-18T09:09:10.524Z,29.6
2017-07-18T09:10:11.994Z,29.6
2017-07-18T09:11:14.127Z,29.6
2017-07-18T09:12:15.596Z,29.6
2017-07-18T09:13:17.063Z,29.5
2017-07-18T09:14:18.510Z,29.6
2017-07-18T09:15:20.644Z,29.6
2017-07-18T09:16:22.498Z,29.6
2017-07-18T09:17:23.945Z,29.5
2017-07-18T09:18:25.723Z,29.6
2017-07-18T09:19:27.861Z,29.5
2017-07-18T09:20:29.315Z,29.6
2017-07-18T09:21:30.760Z,29.6
2017-07-18T09:22:32.895Z,29.6
2017-07-18T09:23:34.738Z,29.6
2017-07-18T09:24:36.207Z,29.5
2017-07-18T09:25:38.010Z,29.6
2017-07-18T09:26:39.811Z,29.6
2017-07-18T09:27:41.597Z,29.6
2017-07-18T09:28:43.381Z,29.6
2017-07-18T09:29:45.163Z,29.6
2017-07-18T09:30:47.303Z,29.6
2017-07-18T09:31:48.747Z,29.6
2017-07-18T09:32:50.880Z,29.6
2017-07-18T09:33:53.014Z,29.6
2017-07-18T09:34:54.797Z,29.7
2017-07-18T09:35:56.923Z,29.6
2017-07-18T09:36:59.056Z,29.5
2017-07-18T09:38:00.870Z,29.5
2017-07-18T09:39:02.658Z,29.6
2017-07-18T09:40:03.779Z,29.6
2017-07-18T09:41:05.566Z,29.6
2017-07-18T09:42:07.698Z,29.6
2017-07-18T09:43:09.180Z,29.7
2017-07-18T09:44:11.316Z,29.7
2017-07-18T09:45:13.091Z,29.6
2017-07-18T09:46:15.224Z,29.6
2017-07-18T09:47:17.035Z,29.6
2017-07-18T09:48:18.151Z,29.7
2017-07-18T09:49:20.285Z,29.7
2017-07-18T09:50:22.068Z,29.6
2017-07-18T09:51:23.539Z,29.6
2017-07-18T09:52:25.676Z,29.6
2017-07-18T09:53:27.479Z,29.6
2017-07-18T09:54:29.613Z,29.7
2017-07-18T09:55:31.064Z,29.6
2017-07-18T09:56:33.196Z,29.7
2017-07-18T09:57:35.000Z,29.6
2017-07-18T09:58:37.136Z,29.7
2017-07-18T09:59:38.942Z,29.6
2017-07-18T10:00:40.747Z,29.8
2017-07-18T10:01:42.215Z,29.7
2017-07-18T10:02:44.073Z,29.7
2017-07-18T10:03:45.538Z,29.7
2017-07-18T10:04:46.991Z,29.7
2017-07-18T10:05:49.122Z,29.7
2017-07-18T10:06:50.583Z,29.7
2017-07-18T10:07:52.716Z,29.7
2017-07-18T10:08:54.165Z,29.7
2017-07-18T10:09:55.965Z,29.7
2017-07-18T10:10:57.439Z,29.7
2017-07-18T10:11:58.561Z,29.7
2017-07-18T10:13:00.367Z,29.7
2017-07-18T10:14:02.168Z,29.7
2017-07-18T10:15:03.948Z,29.7
2017-07-18T10:16:05.070Z,29.7
2017-07-18T10:17:06.870Z,29.7
2017-07-18T10:18:08.670Z,29.7
2017-07-18T10:19:10.119Z,29.8
2017-07-18T10:20:11.568Z,29.7
2017-07-18T10:21:13.706Z,29.8
2017-07-18T10:22:15.843Z,29.7
2017-07-18T10:23:17.977Z,29.7
2017-07-18T10:24:19.781Z,29.8
2017-07-18T10:25:21.586Z,29.7
2017-07-18T10:26:23.720Z,29.7
2017-07-18T10:27:25.514Z,29.8
2017-07-18T10:28:27.313Z,29.8
2017-07-18T10:29:29.113Z,29.8
2017-07-18T10:30:30.916Z,29.7
2017-07-18T10:31:32.386Z,29.8
2017-07-18T10:32:34.187Z,29.7
2017-07-18T10:33:35.643Z,29.8
2017-07-18T10:34:37.445Z,29.7
2017-07-18T10:35:39.243Z,29.7
2017-07-18T10:36:40.713Z,29.7
2017-07-18T10:37:42.188Z,29.7
2017-07-18T10:38:43.655Z,29.7
2017-07-18T10:39:44.772Z,29.7
2017-07-18T10:40:46.908Z,29.7
2017-07-18T10:41:48.716Z,29.7
2017-07-18T10:42:50.158Z,29.7
2017-07-18T10:43:52.289Z,29.8
2017-07-18T10:44:54.092Z,29.8
2017-07-18T10:45:55.892Z,29.8
2017-07-18T10:46:57.673Z,29.8
2017-07-18T10:47:59.472Z,29.7
2017-07-18T10:49:01.611Z,29.9
2017-07-18T10:50:03.077Z,29.7
2017-07-18T10:51:04.876Z,29.8
2017-07-18T10:52:07.053Z,29.9
2017-07-18T10:53:08.835Z,29.9
2017-07-18T10:54:10.284Z,29.9
2017-07-18T10:55:12.086Z,29.9
2017-07-18T10:56:13.885Z,29.8
2017-07-18T10:57:16.018Z,29.9
2017-07-18T10:58:17.140Z,29.9
2017-07-18T10:59:18.943Z,29.8
2017-07-18T11:00:20.743Z,29.8
2017-07-18T11:01:22.212Z,29.8
2017-07-18T11:02:24.344Z,29.9
2017-07-18T11:03:25.816Z,29.9
2017-07-18T11:04:27.616Z,29.8
2017-07-18T11:05:29.748Z,29.9
2017-07-18T11:06:31.553Z,29.9
2017-07-18T11:07:33.730Z,29.9
2017-07-18T11:08:35.512Z,29.9
2017-07-18T11:09:37.651Z,29.9
2017-07-18T11:10:39.785Z,29.9
2017-07-18T11:11:41.593Z,30
2017-07-18T11:12:43.396Z,29.9
2017-07-18T11:13:45.532Z,30
2017-07-18T11:14:47.102Z,29.9
2017-07-18T11:15:49.237Z,29.9
2017-07-18T11:16:51.034Z,30
2017-07-18T11:17:53.168Z,30
2017-07-18T11:18:54.969Z,29.9
2017-07-18T11:19:57.101Z,29.9
2017-07-18T11:20:58.547Z,29.9
2017-07-18T11:21:59.671Z,29.9
2017-07-18T11:23:01.142Z,29.9
2017-07-18T11:24:03.274Z,30
2017-07-18T11:25:05.407Z,30
2017-07-18T11:26:07.241Z,29.9
2017-07-18T11:27:09.045Z,29.9
2017-07-18T11:28:11.180Z,30
2017-07-18T11:29:12.984Z,30
2017-07-18T11:30:14.435Z,30
2017-07-18T11:31:16.582Z,30
2017-07-18T11:32:18.718Z,30
2017-07-18T11:33:20.850Z,30
2017-07-18T11:34:22.986Z,29.9
2017-07-18T11:35:24.776Z,30
2017-07-18T11:36:26.911Z,30
2017-07-18T11:37:28.028Z,30
2017-07-18T11:38:29.833Z,30
2017-07-18T11:39:30.957Z,30
2017-07-18T11:40:33.093Z,30
2017-07-18T11:41:34.894Z,30
2017-07-18T11:42:37.033Z,30
2017-07-18T11:43:38.836Z,30
2017-07-18T11:44:40.282Z,30
2017-07-18T11:45:42.415Z,29.9
2017-07-18T11:46:44.221Z,29.9
2017-07-18T11:47:46.352Z,29.9
2017-07-18T11:48:47.806Z,29.9
2017-07-18T11:49:49.586Z,30
2017-07-18T11:50:51.439Z,30
2017-07-18T11:51:53.238Z,30
2017-07-18T11:52:54.709Z,30
2017-07-18T11:53:55.841Z,29.9
2017-07-18T11:54:57.976Z,30
2017-07-18T11:56:00.112Z,29.9
2017-07-18T11:57:01.915Z,30
2017-07-18T11:58:03.721Z,30
2017-07-18T11:59:05.519Z,29.9
2017-07-18T12:00:07.326Z,29.9
2017-07-18T12:01:09.131Z,30
2017-07-18T12:02:11.265Z,29.9
2017-07-18T12:03:13.399Z,29.9
2017-07-18T12:04:15.529Z,30
2017-07-18T12:05:16.976Z,29.9
2017-07-18T12:06:19.108Z,29.9
2017-07-18T12:07:21.271Z,30
2017-07-18T12:08:23.394Z,30
2017-07-18T12:09:25.529Z,30
2017-07-18T12:10:27.668Z,30
2017-07-18T12:11:29.803Z,30
2017-07-18T12:12:31.604Z,29.9
2017-07-18T12:13:33.073Z,30
2017-07-18T12:14:35.205Z,30
2017-07-18T12:15:37.338Z,30
2017-07-18T12:16:39.474Z,30
2017-07-18T12:17:41.603Z,30.1
2017-07-18T12:18:43.047Z,30
2017-07-18T12:19:45.185Z,30
2017-07-18T12:20:46.980Z,30
2017-07-18T12:21:49.116Z,30
2017-07-18T12:22:50.249Z,30
2017-07-18T12:23:52.384Z,30
2017-07-18T12:24:54.184Z,30
2017-07-18T12:25:55.636Z,30
2017-07-18T12:26:57.439Z,30
2017-07-18T12:27:59.576Z,30
2017-07-18T12:29:01.710Z,30
2017-07-18T12:30:03.538Z,30
2017-07-18T12:31:05.673Z,30
2017-07-18T12:32:07.495Z,30
2017-07-18T12:33:09.628Z,30.1
2017-07-18T12:34:11.763Z,30
2017-07-18T12:35:13.567Z,30.1
2017-07-18T12:36:15.375Z,30.1
2017-07-18T12:37:17.506Z,30.1
2017-07-18T12:38:19.309Z,30
2017-07-18T12:39:21.114Z,30
2017-07-18T12:40:22.563Z,30.1
2017-07-18T12:41:24.028Z,30.1
2017-07-18T12:42:25.830Z,30
2017-07-18T12:43:27.631Z,30.1
2017-07-18T12:44:29.106Z,30.1
2017-07-18T12:45:30.925Z,30
2017-07-18T12:46:32.725Z,30.1
2017-07-18T12:47:34.858Z,30
2017-07-18T12:48:37.010Z,30.1
2017-07-18T12:49:38.808Z,30.1
2017-07-18T12:50:40.941Z,30.1
2017-07-18T12:51:42.414Z,30.1
2017-07-18T12:52:44.650Z,30
2017-07-18T12:53:46.782Z,30.1
2017-07-18T12:54:48.580Z,30.1
2017-07-18T12:55:50.716Z,30.1
2017-07-18T12:56:52.520Z,30.1
2017-07-18T12:57:53.984Z,30
2017-07-18T12:58:55.788Z,30.1
2017-07-18T12:59:57.921Z,30
2017-07-18T13:00:59.726Z,30.1
2017-07-18T13:02:01.527Z,30.1
2017-07-18T13:03:03.035Z,30.1
2017-07-18T13:04:05.169Z,30.1
2017-07-18T13:05:06.977Z,30.1
2017-07-18T13:06:09.124Z,30.1
2017-07-18T13:07:11.257Z,30
2017-07-18T13:08:13.055Z,30.1
2017-07-18T13:09:15.189Z,30.1
2017-07-18T13:10:16.986Z,30.1
2017-07-18T13:11:19.132Z,30
2017-07-18T13:12:20.608Z,30.1
2017-07-18T13:13:22.392Z,30.1
2017-07-18T13:14:24.189Z,30.1
2017-07-18T13:15:26.326Z,30.1
2017-07-18T13:16:28.127Z,30.1
2017-07-18T13:17:29.925Z,30.1
2017-07-18T13:18:32.053Z,30.1
2017-07-18T13:19:33.855Z,30.1
2017-07-18T13:20:35.317Z,30.1
2017-07-18T13:21:37.451Z,30.1
2017-07-18T13:22:39.253Z,30.1
2017-07-18T13:23:41.388Z,30.2
2017-07-18T13:24:43.165Z,30.2
2017-07-18T13:25:45.302Z,30.1
2017-07-18T13:26:47.090Z,30.1
2017-07-18T13:27:49.224Z,30.1
2017-07-18T13:28:50.011Z,30.2
2017-07-18T13:29:51.810Z,30.1
2017-07-18T13:30:53.614Z,30.1
2017-07-18T13:31:55.748Z,30.1
2017-07-18T13:32:57.549Z,30.2
2017-07-18T13:33:59.017Z,30.2
2017-07-18T13:35:00.462Z,30.2
2017-07-18T13:36:02.593Z,30.2
2017-07-18T13:37:04.728Z,30.2
2017-07-18T13:38:06.863Z,30.2
2017-07-18T13:39:08.662Z,30.2
2017-07-18T13:40:10.113Z,30.2
2017-07-18T13:41:11.912Z,30.2
2017-07-18T13:42:13.715Z,30.1
2017-07-18T13:43:15.516Z,30.2
2017-07-18T13:44:17.333Z,30.1
2017-07-18T13:45:19.138Z,30.2
2017-07-18T13:46:21.277Z,30.2
2017-07-18T13:47:23.078Z,30.2
2017-07-18T13:48:25.213Z,30.2